sensor_id;sensor_type;location;lat;lon;timestamp;P1;durP1;ratioP1;P2;durP2;ratioP2
25553;SDS011;13446;50.926;5.332;2024-03-02T00:00:05;2.17;;;0.40;;
25553;SDS011;13446;50.926;5.332;2024-03-02T00:06:31;0.30;;;0.25;;
25553;SDS011;13446;50.926;5.332;2024-03-02T00:09:00;1.88;;;0.20;;
25553;SDS011;13446;50.926;5.332;2024-03-02T00:11:25;2.88;;;0.40;;
25553;SDS011;13446;50.926;5.332;2024-03-02T00:13:52;0.40;;;0.30;;
25553;SDS011;13446;50.926;5.332;2024-03-02T00:16:19;2.38;;;0.40;;
25553;SDS011;13446;50.926;5.332;2024-03-02T00:24:58;3.00;;;0.40;;
25553;SDS011;13446;50.926;5.332;2024-03-02T00:27:24;1.95;;;0.30;;
25553;SDS011;13446;50.926;5.332;2024-03-02T00:35:30;2.38;;;0.32;;
25553;SDS011;13446;50.926;5.332;2024-03-02T00:37:57;1.05;;;0.30;;
25553;SDS011;13446;50.926;5.332;2024-03-02T00:40:22;0.93;;;0.30;;
25553;SDS011;13446;50.926;5.332;2024-03-02T00:42:55;3.05;;;0.40;;
25553;SDS011;13446;50.926;5.332;2024-03-02T00:48:28;0.20;;;0.10;;
25553;SDS011;13446;50.926;5.332;2024-03-02T00:51:05;0.75;;;0.30;;
25553;SDS011;13446;50.926;5.332;2024-03-02T00:53:31;1.02;;;0.20;;
25553;SDS011;13446;50.926;5.332;2024-03-02T00:56:00;0.20;;;0.15;;
25553;SDS011;13446;50.926;5.332;2024-03-02T00:58:26;1.88;;;0.30;;
25553;SDS011;13446;50.926;5.332;2024-03-02T01:00:52;0.38;;;0.30;;
25553;SDS011;13446;50.926;5.332;2024-03-02T01:03:18;1.92;;;0.47;;
25553;SDS011;13446;50.926;5.332;2024-03-02T01:05:45;0.40;;;0.30;;
25553;SDS011;13446;50.926;5.332;2024-03-02T01:08:12;0.60;;;0.30;;
25553;SDS011;13446;50.926;5.332;2024-03-02T01:13:56;1.45;;;0.20;;
25553;SDS011;13446;50.926;5.332;2024-03-02T01:16:49;0.80;;;0.20;;
25553;SDS011;13446;50.926;5.332;2024-03-02T01:19:15;2.15;;;0.50;;
25553;SDS011;13446;50.926;5.332;2024-03-02T01:38:36;0.88;;;0.20;;
25553;SDS011;13446;50.926;5.332;2024-03-02T01:41:02;2.22;;;0.25;;
25553;SDS011;13446;50.926;5.332;2024-03-02T01:43:29;0.20;;;0.20;;
25553;SDS011;13446;50.926;5.332;2024-03-02T01:45:54;0.55;;;0.30;;
25553;SDS011;13446;50.926;5.332;2024-03-02T01:48:21;1.27;;;0.30;;
25553;SDS011;13446;50.926;5.332;2024-03-02T01:50:47;0.80;;;0.30;;
25553;SDS011;13446;50.926;5.332;2024-03-02T01:53:13;0.52;;;0.30;;
25553;SDS011;13446;50.926;5.332;2024-03-02T02:00:49;1.75;;;0.38;;
25553;SDS011;13446;50.926;5.332;2024-03-02T02:03:15;0.20;;;0.20;;
25553;SDS011;13446;50.926;5.332;2024-03-02T02:05:44;0.50;;;0.22;;
25553;SDS011;13446;50.926;5.332;2024-03-02T02:08:12;0.43;;;0.27;;
25553;SDS011;13446;50.926;5.332;2024-03-02T02:10:38;0.70;;;0.32;;
25553;SDS011;13446;50.926;5.332;2024-03-02T02:13:04;0.95;;;0.30;;
25553;SDS011;13446;50.926;5.332;2024-03-02T02:15:33;1.48;;;0.50;;
25553;SDS011;13446;50.926;5.332;2024-03-02T02:18:01;2.13;;;0.30;;
25553;SDS011;13446;50.926;5.332;2024-03-02T02:20:28;1.42;;;0.30;;
25553;SDS011;13446;50.926;5.332;2024-03-02T02:22:58;1.10;;;0.30;;
25553;SDS011;13446;50.926;5.332;2024-03-02T02:25:27;0.35;;;0.28;;
25553;SDS011;13446;50.926;5.332;2024-03-02T02:31:44;1.30;;;0.20;;
25553;SDS011;13446;50.926;5.332;2024-03-02T02:36:57;0.50;;;0.32;;
25553;SDS011;13446;50.926;5.332;2024-03-02T02:39:23;0.80;;;0.20;;
25553;SDS011;13446;50.926;5.332;2024-03-02T02:41:49;0.82;;;0.45;;
25553;SDS011;13446;50.926;5.332;2024-03-02T02:44:14;0.40;;;0.30;;
25553;SDS011;13446;50.926;5.332;2024-03-02T02:46:40;3.47;;;0.43;;
25553;SDS011;13446;50.926;5.332;2024-03-02T02:49:06;2.83;;;1.35;;
25553;SDS011;13446;50.926;5.332;2024-03-02T02:51:32;1.35;;;0.38;;
25553;SDS011;13446;50.926;5.332;2024-03-02T02:53:58;0.65;;;0.17;;
25553;SDS011;13446;50.926;5.332;2024-03-02T02:56:23;1.90;;;0.20;;
25553;SDS011;13446;50.926;5.332;2024-03-02T02:58:49;2.08;;;0.20;;
25553;SDS011;13446;50.926;5.332;2024-03-02T03:01:15;0.47;;;0.30;;
25553;SDS011;13446;50.926;5.332;2024-03-02T03:03:47;1.50;;;0.30;;
25553;SDS011;13446;50.926;5.332;2024-03-02T03:11:41;0.80;;;0.28;;
25553;SDS011;13446;50.926;5.332;2024-03-02T03:14:25;0.25;;;0.10;;
25553;SDS011;13446;50.926;5.332;2024-03-02T03:17:00;1.27;;;0.73;;
25553;SDS011;13446;50.926;5.332;2024-03-02T03:27:54;1.60;;;0.60;;
25553;SDS011;13446;50.926;5.332;2024-03-02T03:30:38;2.70;;;1.25;;
25553;SDS011;13446;50.926;5.332;2024-03-02T03:33:07;1.38;;;0.70;;
25553;SDS011;13446;50.926;5.332;2024-03-02T03:35:51;0.95;;;0.60;;
25553;SDS011;13446;50.926;5.332;2024-03-02T03:38:30;0.60;;;0.40;;
25553;SDS011;13446;50.926;5.332;2024-03-02T03:41:14;0.50;;;0.30;;
25553;SDS011;13446;50.926;5.332;2024-03-02T03:46:08;1.73;;;0.40;;
25553;SDS011;13446;50.926;5.332;2024-03-02T03:48:41;0.60;;;0.10;;
25553;SDS011;13446;50.926;5.332;2024-03-02T03:51:16;0.77;;;0.40;;
25553;SDS011;13446;50.926;5.332;2024-03-02T03:53:44;0.30;;;0.15;;
25553;SDS011;13446;50.926;5.332;2024-03-02T03:56:11;1.20;;;0.30;;
25553;SDS011;13446;50.926;5.332;2024-03-02T03:58:36;0.25;;;0.10;;
25553;SDS011;13446;50.926;5.332;2024-03-02T04:01:02;0.77;;;0.10;;
25553;SDS011;13446;50.926;5.332;2024-03-02T04:03:28;1.15;;;0.30;;
25553;SDS011;13446;50.926;5.332;2024-03-02T04:05:54;0.45;;;0.20;;
25553;SDS011;13446;50.926;5.332;2024-03-02T04:08:19;1.55;;;0.20;;
25553;SDS011;13446;50.926;5.332;2024-03-02T04:11:03;0.73;;;0.10;;
25553;SDS011;13446;50.926;5.332;2024-03-02T04:13:45;1.95;;;0.30;;
25553;SDS011;13446;50.926;5.332;2024-03-02T04:16:13;1.23;;;0.20;;
25553;SDS011;13446;50.926;5.332;2024-03-02T04:18:42;0.77;;;0.30;;
25553;SDS011;13446;50.926;5.332;2024-03-02T04:21:14;0.73;;;0.43;;
25553;SDS011;13446;50.926;5.332;2024-03-02T04:23:55;0.30;;;0.20;;
25553;SDS011;13446;50.926;5.332;2024-03-02T04:29:29;0.68;;;0.20;;
25553;SDS011;13446;50.926;5.332;2024-03-02T04:32:08;1.27;;;0.20;;
25553;SDS011;13446;50.926;5.332;2024-03-02T04:34:48;0.60;;;0.10;;
25553;SDS011;13446;50.926;5.332;2024-03-02T04:37:23;3.15;;;0.30;;
25553;SDS011;13446;50.926;5.332;2024-03-02T04:40:05;2.10;;;0.30;;
25553;SDS011;13446;50.926;5.332;2024-03-02T04:42:42;0.80;;;0.22;;
25553;SDS011;13446;50.926;5.332;2024-03-02T04:45:08;1.83;;;0.30;;
25553;SDS011;13446;50.926;5.332;2024-03-02T04:47:37;2.53;;;0.20;;
25553;SDS011;13446;50.926;5.332;2024-03-02T04:50:25;2.50;;;0.30;;
25553;SDS011;13446;50.926;5.332;2024-03-02T04:52:53;1.85;;;0.40;;
25553;SDS011;13446;50.926;5.332;2024-03-02T04:55:19;0.65;;;0.03;;
25553;SDS011;13446;50.926;5.332;2024-03-02T04:58:02;1.20;;;0.35;;
25553;SDS011;13446;50.926;5.332;2024-03-02T05:00:29;1.50;;;0.20;;
25553;SDS011;13446;50.926;5.332;2024-03-02T05:02:55;2.47;;;0.20;;
25553;SDS011;13446;50.926;5.332;2024-03-02T05:05:42;1.02;;;0.30;;
25553;SDS011;13446;50.926;5.332;2024-03-02T05:14:25;0.32;;;0.20;;
25553;SDS011;13446;50.926;5.332;2024-03-02T05:17:06;1.60;;;0.35;;
25553;SDS011;13446;50.926;5.332;2024-03-02T05:19:34;1.25;;;0.30;;
25553;SDS011;13446;50.926;5.332;2024-03-02T05:22:00;2.70;;;0.32;;
25553;SDS011;13446;50.926;5.332;2024-03-02T05:24:35;2.83;;;0.50;;
25553;SDS011;13446;50.926;5.332;2024-03-02T05:27:07;1.33;;;0.45;;
25553;SDS011;13446;50.926;5.332;2024-03-02T05:29:51;1.33;;;0.30;;
25553;SDS011;13446;50.926;5.332;2024-03-02T05:32:35;1.42;;;0.40;;
25553;SDS011;13446;50.926;5.332;2024-03-02T05:35:04;1.75;;;0.22;;
25553;SDS011;13446;50.926;5.332;2024-03-02T05:37:30;0.95;;;0.25;;
25553;SDS011;13446;50.926;5.332;2024-03-02T05:39:56;2.17;;;0.43;;
25553;SDS011;13446;50.926;5.332;2024-03-02T05:42:24;2.30;;;0.40;;
25553;SDS011;13446;50.926;5.332;2024-03-02T05:44:52;4.75;;;0.55;;
25553;SDS011;13446;50.926;5.332;2024-03-02T05:47:18;4.40;;;0.60;;
25553;SDS011;13446;50.926;5.332;2024-03-02T05:49:44;2.85;;;0.65;;
25553;SDS011;13446;50.926;5.332;2024-03-02T05:52:09;3.45;;;0.60;;
25553;SDS011;13446;50.926;5.332;2024-03-02T05:54:36;3.47;;;0.50;;
25553;SDS011;13446;50.926;5.332;2024-03-02T05:57:03;3.58;;;0.50;;
25553;SDS011;13446;50.926;5.332;2024-03-02T05:59:54;3.38;;;0.60;;
25553;SDS011;13446;50.926;5.332;2024-03-02T06:02:19;4.13;;;0.60;;
25553;SDS011;13446;50.926;5.332;2024-03-02T06:04:45;4.10;;;0.68;;
25553;SDS011;13446;50.926;5.332;2024-03-02T06:07:11;3.42;;;0.68;;
25553;SDS011;13446;50.926;5.332;2024-03-02T06:09:49;1.77;;;0.50;;
25553;SDS011;13446;50.926;5.332;2024-03-02T06:12:18;3.58;;;0.60;;
25553;SDS011;13446;50.926;5.332;2024-03-02T06:14:44;2.13;;;0.40;;
25553;SDS011;13446;50.926;5.332;2024-03-02T06:17:09;3.22;;;0.60;;
25553;SDS011;13446;50.926;5.332;2024-03-02T06:19:38;3.30;;;0.35;;
25553;SDS011;13446;50.926;5.332;2024-03-02T06:22:07;2.50;;;0.45;;
25553;SDS011;13446;50.926;5.332;2024-03-02T06:24:38;3.78;;;0.50;;
25553;SDS011;13446;50.926;5.332;2024-03-02T06:27:04;3.53;;;0.93;;
25553;SDS011;13446;50.926;5.332;2024-03-02T06:29:43;2.13;;;0.50;;
25553;SDS011;13446;50.926;5.332;2024-03-02T06:32:08;3.13;;;0.43;;
25553;SDS011;13446;50.926;5.332;2024-03-02T06:34:34;3.17;;;0.73;;
25553;SDS011;13446;50.926;5.332;2024-03-02T06:37:03;2.47;;;0.77;;
25553;SDS011;13446;50.926;5.332;2024-03-02T06:39:32;6.03;;;0.70;;
25553;SDS011;13446;50.926;5.332;2024-03-02T06:49:56;3.55;;;0.63;;
25553;SDS011;13446;50.926;5.332;2024-03-02T06:52:23;2.90;;;0.90;;
25553;SDS011;13446;50.926;5.332;2024-03-02T06:54:53;1.52;;;0.60;;
25553;SDS011;13446;50.926;5.332;2024-03-02T06:57:19;3.65;;;0.45;;
25553;SDS011;13446;50.926;5.332;2024-03-02T07:02:51;3.35;;;0.60;;
25553;SDS011;13446;50.926;5.332;2024-03-02T07:10:40;3.47;;;0.50;;
25553;SDS011;13446;50.926;5.332;2024-03-02T07:13:26;2.85;;;0.70;;
25553;SDS011;13446;50.926;5.332;2024-03-02T07:19:43;4.30;;;0.75;;
25553;SDS011;13446;50.926;5.332;2024-03-02T07:22:15;3.80;;;0.83;;
25553;SDS011;13446;50.926;5.332;2024-03-02T07:24:53;2.15;;;0.47;;
25553;SDS011;13446;50.926;5.332;2024-03-02T07:27:18;2.95;;;0.63;;
25553;SDS011;13446;50.926;5.332;2024-03-02T07:30:02;5.78;;;0.80;;
25553;SDS011;13446;50.926;5.332;2024-03-02T07:32:37;1.25;;;0.55;;
25553;SDS011;13446;50.926;5.332;2024-03-02T07:35:03;5.25;;;0.73;;
25553;SDS011;13446;50.926;5.332;2024-03-02T07:37:29;5.30;;;0.55;;
25553;SDS011;13446;50.926;5.332;2024-03-02T07:39:54;3.42;;;0.77;;
25553;SDS011;13446;50.926;5.332;2024-03-02T07:42:20;6.78;;;1.00;;
25553;SDS011;13446;50.926;5.332;2024-03-02T07:44:46;5.85;;;1.00;;
25553;SDS011;13446;50.926;5.332;2024-03-02T07:47:12;2.90;;;0.82;;
25553;SDS011;13446;50.926;5.332;2024-03-02T07:49:39;6.47;;;1.10;;
25553;SDS011;13446;50.926;5.332;2024-03-02T07:52:05;3.85;;;1.00;;
25553;SDS011;13446;50.926;5.332;2024-03-02T07:54:30;2.67;;;0.50;;
25553;SDS011;13446;50.926;5.332;2024-03-02T07:56:56;4.53;;;0.90;;
25553;SDS011;13446;50.926;5.332;2024-03-02T07:59:27;2.42;;;0.70;;
25553;SDS011;13446;50.926;5.332;2024-03-02T08:04:22;2.28;;;0.57;;
25553;SDS011;13446;50.926;5.332;2024-03-02T08:06:48;3.53;;;0.70;;
25553;SDS011;13446;50.926;5.332;2024-03-02T08:09:14;5.43;;;0.90;;
25553;SDS011;13446;50.926;5.332;2024-03-02T08:11:44;5.13;;;0.93;;
25553;SDS011;13446;50.926;5.332;2024-03-02T08:14:13;5.13;;;0.98;;
25553;SDS011;13446;50.926;5.332;2024-03-02T08:16:39;6.70;;;1.02;;
25553;SDS011;13446;50.926;5.332;2024-03-02T08:19:06;5.05;;;0.77;;
25553;SDS011;13446;50.926;5.332;2024-03-02T08:21:32;1.45;;;0.50;;
25553;SDS011;13446;50.926;5.332;2024-03-02T08:24:00;4.82;;;0.90;;
25553;SDS011;13446;50.926;5.332;2024-03-02T08:26:27;2.35;;;0.70;;
25553;SDS011;13446;50.926;5.332;2024-03-02T08:28:54;3.17;;;0.60;;
25553;SDS011;13446;50.926;5.332;2024-03-02T08:31:20;2.00;;;0.60;;
25553;SDS011;13446;50.926;5.332;2024-03-02T08:33:46;3.67;;;0.70;;
25553;SDS011;13446;50.926;5.332;2024-03-02T08:36:12;3.42;;;0.70;;
25553;SDS011;13446;50.926;5.332;2024-03-02T08:38:39;5.13;;;0.63;;
25553;SDS011;13446;50.926;5.332;2024-03-02T08:41:04;2.03;;;0.50;;
25553;SDS011;13446;50.926;5.332;2024-03-02T08:43:30;3.25;;;0.75;;
25553;SDS011;13446;50.926;5.332;2024-03-02T08:45:56;3.35;;;0.90;;
25553;SDS011;13446;50.926;5.332;2024-03-02T08:48:24;5.18;;;0.80;;
25553;SDS011;13446;50.926;5.332;2024-03-02T08:50:50;3.70;;;0.80;;
25553;SDS011;13446;50.926;5.332;2024-03-02T08:53:17;3.08;;;0.60;;
25553;SDS011;13446;50.926;5.332;2024-03-02T08:55:45;4.22;;;1.10;;
25553;SDS011;13446;50.926;5.332;2024-03-02T08:58:11;2.38;;;0.73;;
25553;SDS011;13446;50.926;5.332;2024-03-02T09:00:36;2.58;;;0.73;;
25553;SDS011;13446;50.926;5.332;2024-03-02T09:03:02;2.83;;;0.75;;
25553;SDS011;13446;50.926;5.332;2024-03-02T09:05:31;3.17;;;0.80;;
25553;SDS011;13446;50.926;5.332;2024-03-02T09:07:56;2.80;;;0.70;;
25553;SDS011;13446;50.926;5.332;2024-03-02T09:10:22;2.13;;;0.35;;
25553;SDS011;13446;50.926;5.332;2024-03-02T09:12:48;5.32;;;0.90;;
25553;SDS011;13446;50.926;5.332;2024-03-02T09:15:14;5.20;;;0.88;;
25553;SDS011;13446;50.926;5.332;2024-03-02T09:17:40;4.43;;;1.17;;
25553;SDS011;13446;50.926;5.332;2024-03-02T09:20:05;6.75;;;0.80;;
25553;SDS011;13446;50.926;5.332;2024-03-02T09:22:31;3.10;;;0.90;;
25553;SDS011;13446;50.926;5.332;2024-03-02T09:24:57;3.08;;;0.70;;
25553;SDS011;13446;50.926;5.332;2024-03-02T09:27:23;3.58;;;1.00;;
25553;SDS011;13446;50.926;5.332;2024-03-02T09:29:50;4.68;;;1.20;;
25553;SDS011;13446;50.926;5.332;2024-03-02T09:32:16;3.05;;;0.70;;
25553;SDS011;13446;50.926;5.332;2024-03-02T09:34:43;5.35;;;1.05;;
25553;SDS011;13446;50.926;5.332;2024-03-02T09:37:09;3.88;;;0.95;;
25553;SDS011;13446;50.926;5.332;2024-03-02T09:39:35;3.80;;;0.85;;
25553;SDS011;13446;50.926;5.332;2024-03-02T09:42:01;5.05;;;0.98;;
25553;SDS011;13446;50.926;5.332;2024-03-02T09:44:29;5.28;;;0.63;;
25553;SDS011;13446;50.926;5.332;2024-03-02T09:46:55;8.48;;;1.15;;
25553;SDS011;13446;50.926;5.332;2024-03-02T09:49:21;2.97;;;0.80;;
25553;SDS011;13446;50.926;5.332;2024-03-02T09:51:47;1.95;;;0.77;;
25553;SDS011;13446;50.926;5.332;2024-03-02T09:54:15;6.03;;;0.93;;
25553;SDS011;13446;50.926;5.332;2024-03-02T09:56:42;5.88;;;0.93;;
25553;SDS011;13446;50.926;5.332;2024-03-02T09:59:09;4.13;;;0.90;;
25553;SDS011;13446;50.926;5.332;2024-03-02T10:01:35;9.25;;;1.00;;
25553;SDS011;13446;50.926;5.332;2024-03-02T10:04:01;6.65;;;0.77;;
25553;SDS011;13446;50.926;5.332;2024-03-02T10:06:30;5.80;;;0.80;;
25553;SDS011;13446;50.926;5.332;2024-03-02T10:08:55;4.57;;;1.00;;
25553;SDS011;13446;50.926;5.332;2024-03-02T10:11:39;2.65;;;0.70;;
25553;SDS011;13446;50.926;5.332;2024-03-02T10:14:09;4.28;;;0.70;;
25553;SDS011;13446;50.926;5.332;2024-03-02T10:16:36;1.95;;;0.82;;
25553;SDS011;13446;50.926;5.332;2024-03-02T10:21:42;5.35;;;0.90;;
25553;SDS011;13446;50.926;5.332;2024-03-02T10:24:07;2.58;;;0.82;;
25553;SDS011;13446;50.926;5.332;2024-03-02T10:26:33;3.83;;;0.80;;
25553;SDS011;13446;50.926;5.332;2024-03-02T10:31:39;5.25;;;0.90;;
25553;SDS011;13446;50.926;5.332;2024-03-02T10:34:10;8.05;;;1.00;;
25553;SDS011;13446;50.926;5.332;2024-03-02T10:36:37;2.50;;;0.70;;
25553;SDS011;13446;50.926;5.332;2024-03-02T10:39:06;4.85;;;0.82;;
25553;SDS011;13446;50.926;5.332;2024-03-02T10:41:36;9.60;;;1.00;;
25553;SDS011;13446;50.926;5.332;2024-03-02T10:44:05;3.20;;;0.90;;
25553;SDS011;13446;50.926;5.332;2024-03-02T10:46:45;2.33;;;0.80;;
25553;SDS011;13446;50.926;5.332;2024-03-02T10:49:12;8.70;;;0.98;;
25553;SDS011;13446;50.926;5.332;2024-03-02T10:51:38;5.60;;;0.68;;
25553;SDS011;13446;50.926;5.332;2024-03-02T10:54:14;3.35;;;0.75;;
25553;SDS011;13446;50.926;5.332;2024-03-02T10:56:40;3.05;;;0.93;;
25553;SDS011;13446;50.926;5.332;2024-03-02T11:02:01;7.43;;;0.98;;
25553;SDS011;13446;50.926;5.332;2024-03-02T11:04:29;3.22;;;0.98;;
25553;SDS011;13446;50.926;5.332;2024-03-02T11:06:59;4.35;;;1.02;;
25553;SDS011;13446;50.926;5.332;2024-03-02T11:09:29;3.28;;;0.70;;
25553;SDS011;13446;50.926;5.332;2024-03-02T11:15:19;3.90;;;0.85;;
25553;SDS011;13446;50.926;5.332;2024-03-02T11:17:50;4.20;;;1.00;;
25553;SDS011;13446;50.926;5.332;2024-03-02T11:20:16;2.90;;;0.93;;
25553;SDS011;13446;50.926;5.332;2024-03-02T11:22:44;5.05;;;1.20;;
25553;SDS011;13446;50.926;5.332;2024-03-02T11:25:31;3.25;;;1.00;;
25553;SDS011;13446;50.926;5.332;2024-03-02T11:28:02;5.25;;;0.90;;
25553;SDS011;13446;50.926;5.332;2024-03-02T11:33:03;4.97;;;0.98;;
25553;SDS011;13446;50.926;5.332;2024-03-02T11:35:36;5.35;;;0.90;;
25553;SDS011;13446;50.926;5.332;2024-03-02T11:38:03;3.42;;;0.90;;
25553;SDS011;13446;50.926;5.332;2024-03-02T11:40:29;4.72;;;0.73;;
25553;SDS011;13446;50.926;5.332;2024-03-02T11:43:04;7.25;;;1.10;;
25553;SDS011;13446;50.926;5.332;2024-03-02T11:45:31;5.40;;;0.73;;
25553;SDS011;13446;50.926;5.332;2024-03-02T11:47:58;5.47;;;1.20;;
25553;SDS011;13446;50.926;5.332;2024-03-02T11:53:12;2.50;;;0.90;;
25553;SDS011;13446;50.926;5.332;2024-03-02T11:55:39;2.22;;;0.70;;
25553;SDS011;13446;50.926;5.332;2024-03-02T11:58:11;5.85;;;0.80;;
25553;SDS011;13446;50.926;5.332;2024-03-02T12:00:37;6.50;;;1.13;;
25553;SDS011;13446;50.926;5.332;2024-03-02T12:03:04;7.10;;;1.00;;
25553;SDS011;13446;50.926;5.332;2024-03-02T12:05:31;6.45;;;1.10;;
25553;SDS011;13446;50.926;5.332;2024-03-02T12:07:58;3.78;;;1.20;;
25553;SDS011;13446;50.926;5.332;2024-03-02T12:10:24;2.72;;;0.70;;
25553;SDS011;13446;50.926;5.332;2024-03-02T12:13:01;2.35;;;0.90;;
25553;SDS011;13446;50.926;5.332;2024-03-02T12:15:28;2.80;;;1.00;;
25553;SDS011;13446;50.926;5.332;2024-03-02T12:17:56;5.68;;;0.98;;
25553;SDS011;13446;50.926;5.332;2024-03-02T12:20:25;6.63;;;1.50;;
25553;SDS011;13446;50.926;5.332;2024-03-02T12:22:54;8.48;;;0.82;;
25553;SDS011;13446;50.926;5.332;2024-03-02T12:25:23;3.75;;;1.00;;
25553;SDS011;13446;50.926;5.332;2024-03-02T12:27:50;3.78;;;0.90;;
25553;SDS011;13446;50.926;5.332;2024-03-02T12:30:18;4.65;;;0.80;;
25553;SDS011;13446;50.926;5.332;2024-03-02T12:32:45;3.90;;;1.00;;
25553;SDS011;13446;50.926;5.332;2024-03-02T12:35:11;4.15;;;0.93;;
25553;SDS011;13446;50.926;5.332;2024-03-02T12:37:50;3.15;;;0.80;;
25553;SDS011;13446;50.926;5.332;2024-03-02T12:40:18;3.33;;;0.75;;
25553;SDS011;13446;50.926;5.332;2024-03-02T12:42:45;1.63;;;0.82;;
25553;SDS011;13446;50.926;5.332;2024-03-02T12:45:12;3.80;;;0.70;;
25553;SDS011;13446;50.926;5.332;2024-03-02T12:47:39;3.42;;;0.90;;
25553;SDS011;13446;50.926;5.332;2024-03-02T12:50:06;1.88;;;0.50;;
25553;SDS011;13446;50.926;5.332;2024-03-02T12:52:32;2.78;;;0.80;;
25553;SDS011;13446;50.926;5.332;2024-03-02T12:55:03;6.13;;;0.87;;
25553;SDS011;13446;50.926;5.332;2024-03-02T12:57:31;2.10;;;0.68;;
25553;SDS011;13446;50.926;5.332;2024-03-02T12:59:58;4.72;;;1.05;;
25553;SDS011;13446;50.926;5.332;2024-03-02T13:02:30;4.07;;;0.85;;
25553;SDS011;13446;50.926;5.332;2024-03-02T13:04:57;3.85;;;1.00;;
25553;SDS011;13446;50.926;5.332;2024-03-02T13:07:24;1.58;;;0.80;;
25553;SDS011;13446;50.926;5.332;2024-03-02T13:09:50;4.45;;;0.98;;
25553;SDS011;13446;50.926;5.332;2024-03-02T13:12:17;2.58;;;0.82;;
25553;SDS011;13446;50.926;5.332;2024-03-02T13:14:44;2.53;;;0.68;;
25553;SDS011;13446;50.926;5.332;2024-03-02T13:17:16;2.13;;;0.68;;
25553;SDS011;13446;50.926;5.332;2024-03-02T13:19:50;4.72;;;1.00;;
25553;SDS011;13446;50.926;5.332;2024-03-02T13:22:39;4.40;;;1.10;;
25553;SDS011;13446;50.926;5.332;2024-03-02T13:25:17;2.30;;;0.80;;
25553;SDS011;13446;50.926;5.332;2024-03-02T13:27:46;2.38;;;0.93;;
25553;SDS011;13446;50.926;5.332;2024-03-02T13:30:12;1.80;;;0.70;;
25553;SDS011;13446;50.926;5.332;2024-03-02T13:32:38;2.92;;;0.80;;
25553;SDS011;13446;50.926;5.332;2024-03-02T13:37:56;1.88;;;0.60;;
25553;SDS011;13446;50.926;5.332;2024-03-02T13:40:32;4.03;;;0.73;;
25553;SDS011;13446;50.926;5.332;2024-03-02T13:43:01;2.88;;;0.68;;
25553;SDS011;13446;50.926;5.332;2024-03-02T13:45:27;3.38;;;0.77;;
25553;SDS011;13446;50.926;5.332;2024-03-02T13:47:54;3.00;;;0.80;;
25553;SDS011;13446;50.926;5.332;2024-03-02T13:50:21;2.38;;;0.55;;
25553;SDS011;13446;50.926;5.332;2024-03-02T13:52:47;2.90;;;0.65;;
25553;SDS011;13446;50.926;5.332;2024-03-02T13:55:17;3.20;;;0.82;;
25553;SDS011;13446;50.926;5.332;2024-03-02T13:57:49;2.05;;;0.60;;
25553;SDS011;13446;50.926;5.332;2024-03-02T14:00:17;2.70;;;1.00;;
25553;SDS011;13446;50.926;5.332;2024-03-02T14:02:43;2.08;;;0.55;;
25553;SDS011;13446;50.926;5.332;2024-03-02T14:05:30;2.78;;;0.60;;
25553;SDS011;13446;50.926;5.332;2024-03-02T14:07:55;4.10;;;0.93;;
25553;SDS011;13446;50.926;5.332;2024-03-02T14:10:21;3.28;;;0.60;;
25553;SDS011;13446;50.926;5.332;2024-03-02T14:12:48;1.52;;;0.70;;
25553;SDS011;13446;50.926;5.332;2024-03-02T14:15:16;2.13;;;0.70;;
25553;SDS011;13446;50.926;5.332;2024-03-02T14:17:42;1.33;;;0.80;;
25553;SDS011;13446;50.926;5.332;2024-03-02T14:20:08;3.40;;;0.77;;
25553;SDS011;13446;50.926;5.332;2024-03-02T14:22:36;1.42;;;0.65;;
25553;SDS011;13446;50.926;5.332;2024-03-02T14:25:02;1.48;;;0.50;;
25553;SDS011;13446;50.926;5.332;2024-03-02T14:27:29;3.05;;;0.77;;
25553;SDS011;13446;50.926;5.332;2024-03-02T14:29:55;3.83;;;0.77;;
25553;SDS011;13446;50.926;5.332;2024-03-02T14:32:21;2.08;;;1.02;;
25553;SDS011;13446;50.926;5.332;2024-03-02T14:34:47;1.63;;;0.70;;
25553;SDS011;13446;50.926;5.332;2024-03-02T14:37:16;1.92;;;0.80;;
25553;SDS011;13446;50.926;5.332;2024-03-02T14:39:42;2.60;;;0.80;;
25553;SDS011;13446;50.926;5.332;2024-03-02T14:42:08;2.47;;;0.90;;
25553;SDS011;13446;50.926;5.332;2024-03-02T14:44:33;1.80;;;0.63;;
25553;SDS011;13446;50.926;5.332;2024-03-02T14:47:00;4.13;;;1.10;;
25553;SDS011;13446;50.926;5.332;2024-03-02T14:49:28;3.08;;;0.65;;
25553;SDS011;13446;50.926;5.332;2024-03-02T14:51:54;5.70;;;0.90;;
25553;SDS011;13446;50.926;5.332;2024-03-02T14:54:20;2.42;;;0.70;;
25553;SDS011;13446;50.926;5.332;2024-03-02T14:56:46;3.67;;;0.60;;
25553;SDS011;13446;50.926;5.332;2024-03-02T14:59:12;2.47;;;0.90;;
25553;SDS011;13446;50.926;5.332;2024-03-02T15:01:38;3.70;;;0.82;;
25553;SDS011;13446;50.926;5.332;2024-03-02T15:04:04;2.50;;;0.85;;
25553;SDS011;13446;50.926;5.332;2024-03-02T15:06:31;2.00;;;0.75;;
25553;SDS011;13446;50.926;5.332;2024-03-02T15:08:57;4.95;;;0.90;;
25553;SDS011;13446;50.926;5.332;2024-03-02T15:11:22;2.03;;;0.90;;
25553;SDS011;13446;50.926;5.332;2024-03-02T15:13:51;1.15;;;0.70;;
25553;SDS011;13446;50.926;5.332;2024-03-02T15:16:19;1.00;;;0.52;;
25553;SDS011;13446;50.926;5.332;2024-03-02T15:18:46;3.25;;;0.82;;
25553;SDS011;13446;50.926;5.332;2024-03-02T15:21:11;3.80;;;1.10;;
25553;SDS011;13446;50.926;5.332;2024-03-02T15:23:43;1.60;;;0.90;;
25553;SDS011;13446;50.926;5.332;2024-03-02T15:28:36;1.75;;;0.70;;
25553;SDS011;13446;50.926;5.332;2024-03-02T15:31:02;2.45;;;0.75;;
25553;SDS011;13446;50.926;5.332;2024-03-02T15:33:29;1.33;;;0.70;;
25553;SDS011;13446;50.926;5.332;2024-03-02T15:35:59;1.45;;;0.77;;
25553;SDS011;13446;50.926;5.332;2024-03-02T15:38:26;3.85;;;1.00;;
25553;SDS011;13446;50.926;5.332;2024-03-02T15:40:52;2.05;;;0.73;;
25553;SDS011;13446;50.926;5.332;2024-03-02T15:43:18;2.65;;;0.90;;
25553;SDS011;13446;50.926;5.332;2024-03-02T15:45:43;2.08;;;0.90;;
25553;SDS011;13446;50.926;5.332;2024-03-02T15:48:09;2.95;;;1.08;;
25553;SDS011;13446;50.926;5.332;2024-03-02T15:50:35;3.00;;;1.10;;
25553;SDS011;13446;50.926;5.332;2024-03-02T15:53:02;1.38;;;1.00;;
25553;SDS011;13446;50.926;5.332;2024-03-02T15:55:31;1.85;;;0.80;;
25553;SDS011;13446;50.926;5.332;2024-03-02T15:57:57;3.88;;;1.08;;
25553;SDS011;13446;50.926;5.332;2024-03-02T16:00:23;2.95;;;1.00;;
25553;SDS011;13446;50.926;5.332;2024-03-02T16:02:49;2.80;;;1.10;;
25553;SDS011;13446;50.926;5.332;2024-03-02T16:05:15;3.38;;;1.20;;
25553;SDS011;13446;50.926;5.332;2024-03-02T16:07:44;2.65;;;1.30;;
25553;SDS011;13446;50.926;5.332;2024-03-02T16:10:10;3.30;;;1.10;;
25553;SDS011;13446;50.926;5.332;2024-03-02T16:12:36;2.63;;;0.98;;
25553;SDS011;13446;50.926;5.332;2024-03-02T16:15:02;2.05;;;1.00;;
25553;SDS011;13446;50.926;5.332;2024-03-02T16:17:28;1.95;;;0.88;;
25553;SDS011;13446;50.926;5.332;2024-03-02T16:19:53;2.72;;;1.13;;
25553;SDS011;13446;50.926;5.332;2024-03-02T16:22:21;2.75;;;1.10;;
25553;SDS011;13446;50.926;5.332;2024-03-02T16:24:50;1.65;;;1.38;;
25553;SDS011;13446;50.926;5.332;2024-03-02T16:27:16;8.07;;;2.75;;
25553;SDS011;13446;50.926;5.332;2024-03-02T16:29:49;9.43;;;4.53;;
25553;SDS011;13446;50.926;5.332;2024-03-02T16:32:15;4.50;;;2.50;;
25553;SDS011;13446;50.926;5.332;2024-03-02T16:34:44;2.05;;;1.70;;
25553;SDS011;13446;50.926;5.332;2024-03-02T16:37:10;5.47;;;2.60;;
25553;SDS011;13446;50.926;5.332;2024-03-02T16:39:36;6.00;;;2.50;;
25553;SDS011;13446;50.926;5.332;2024-03-02T16:48:09;2.00;;;1.20;;
25553;SDS011;13446;50.926;5.332;2024-03-02T16:50:44;1.40;;;1.10;;
25553;SDS011;13446;50.926;5.332;2024-03-02T16:53:20;3.30;;;1.63;;
25553;SDS011;13446;50.926;5.332;2024-03-02T16:55:51;3.13;;;1.80;;
25553;SDS011;13446;50.926;5.332;2024-03-02T16:58:17;6.15;;;2.15;;
25553;SDS011;13446;50.926;5.332;2024-03-02T17:00:45;2.55;;;1.23;;
25553;SDS011;13446;50.926;5.332;2024-03-02T17:03:10;2.95;;;2.00;;